Time;durP1;ratioP1;P1;durP2;ratioP2;P2;SDS_P1;SDS_P2;PMS_P1;PMS_P2;Temp;Humidity;BMP_temperature;BMP_pressure;BME280_temperature;BME280_humidity;BME280_pressure;Samples;Min_cycle;Max_cycle;Signal;HPM_P1;HPM_P2
2023/03/15 00:01:18;;;;;;;3.42;0.95;;;;;;;-148.88;86.38;76608.09;5013971;28;20591;-88
2023/03/15 00:03:45;;;;;;;10.82;1.80;;;;;;;-148.88;87.68;76636.53;5013719;28;20021;-88
2023/03/15 00:06:11;;;;;;;7.68;1.38;;;;;;;-148.88;88.42;76634.50;5013748;28;20033;-88
2023/03/15 00:08:37;;;;;;;3.42;1.55;;;;;;;-148.88;87.70;76634.50;5013649;28;20460;-88
2023/03/15 00:11:03;;;;;;;6.13;1.33;;;;;;;-148.88;86.46;76604.00;5014319;28;20052;-87
2023/03/15 00:13:29;;;;;;;5.30;1.33;;;;;;;-148.88;86.86;76618.25;5013787;28;20100;-88
2023/03/15 00:15:59;;;;;;;3.25;1.30;;;;;;;-148.88;85.47;76599.94;5013551;28;20021;-87
2023/03/15 00:18:26;;;;;;;9.10;1.80;;;;;;;-148.88;84.95;76595.88;5012783;28;20361;-88
2023/03/15 00:20:52;;;;;;;6.72;1.50;;;;;;;-148.88;86.18;76591.81;5012443;28;20029;-88
2023/03/15 00:23:17;;;;;;;8.32;1.30;;;;;;;-148.88;85.20;76565.41;5013731;28;20026;-89
2023/03/15 00:25:44;;;;;;;4.18;1.33;;;;;;;-148.88;85.10;76583.69;5013656;28;20388;-88
2023/03/15 00:28:10;;;;;;;7.88;1.63;;;;;;;-148.88;83.63;76565.41;5013851;28;20029;-88
2023/03/15 00:30:35;;;;;;;3.80;1.23;;;;;;;-148.88;84.51;76571.50;5012291;28;20022;-88
2023/03/15 00:33:04;;;;;;;5.32;1.90;;;;;;;-148.88;84.10;76583.69;5013442;28;20092;-87
2023/03/15 00:35:32;;;;;;;5.65;1.60;;;;;;;-148.88;83.47;76577.59;5012010;28;20022;-88
2023/03/15 00:37:58;;;;;;;4.40;1.05;;;;;;;-148.88;83.06;76569.47;5012157;28;20033;-88
2023/03/15 00:40:23;;;;;;;7.22;1.58;;;;;;;-148.88;82.93;76569.47;5013412;28;20121;-88
2023/03/15 00:42:49;;;;;;;5.18;1.20;;;;;;;-148.88;83.45;76561.34;5013392;28;20026;-88
2023/03/15 00:45:19;;;;;;;8.52;1.08;;;;;;;-148.88;82.79;76565.41;5013060;28;20026;-88
2023/03/15 00:47:48;;;;;;;6.90;1.30;;;;;;;-148.88;83.42;76579.63;5013301;28;20484;-88
2023/03/15 00:50:13;;;;;;;4.25;1.15;;;;;;;-148.88;83.93;76583.69;5013322;28;20443;-88
2023/03/15 00:52:40;;;;;;;7.22;1.20;;;;;;;-148.88;83.05;76557.28;5012137;28;20058;-88
2023/03/15 00:55:12;;;;;;;4.40;1.17;;;;;;;-148.88;83.92;76577.59;5013322;28;20028;-88
2023/03/15 00:57:37;;;;;;;7.22;1.20;;;;;;;-148.88;82.93;76573.53;5013313;28;20026;-89
2023/03/15 01:00:03;;;;;;;6.88;1.35;;;;;;;-148.88;83.53;76573.53;5013076;28;20072;-87
2023/03/15 01:02:30;;;;;;;6.88;1.23;;;;;;;-148.88;83.16;76549.16;5012248;28;20017;-88
2023/03/15 01:04:55;;;;;;;6.28;1.10;;;;;;;-148.88;83.04;76557.28;5012449;28;20036;-89
2023/03/15 01:07:20;;;;;;;6.50;1.40;;;;;;;-148.88;82.29;76524.78;5013051;28;20030;-87
2023/03/15 01:09:46;;;;;;;4.80;1.45;;;;;;;-148.88;82.48;76532.91;5013512;28;20496;-88
2023/03/15 01:12:11;;;;;;;5.88;1.13;;;;;;;-148.88;81.51;76514.63;5014032;28;20029;-88
2023/03/15 01:14:37;;;;;;;7.63;1.25;;;;;;;-148.88;81.88;76534.94;5013271;28;20050;-89
2023/03/15 01:17:03;;;;;;;7.57;1.60;;;;;;;-148.88;82.47;76549.16;5012018;28;20032;-87
2023/03/15 01:19:28;;;;;;;5.10;0.98;;;;;;;-148.88;82.77;76524.78;5013504;28;20022;-88
2023/03/15 01:21:54;;;;;;;7.75;1.38;;;;;;;-148.88;83.23;76541.03;5013654;28;20026;-89
2023/03/15 01:24:19;;;;;;;6.03;1.08;;;;;;;-148.88;83.31;76528.84;5012730;28;20026;-89
2023/03/15 01:26:44;;;;;;;7.05;2.10;;;;;;;-148.88;85.57;76563.38;5013350;28;20029;-89
2023/03/15 01:29:11;;;;;;;7.47;1.90;;;;;;;-148.88;86.82;76569.47;5013075;28;20392;-89
2023/03/15 01:31:37;;;;;;;4.28;1.60;;;;;;;-148.88;88.54;76565.41;5011817;28;20030;-89
2023/03/15 01:34:02;;;;;;;7.00;1.67;;;;;;;-148.88;92.90;76606.06;5012866;28;20022;-88
2023/03/15 01:36:27;;;;;;;5.82;1.40;;;;;;;-148.88;97.74;76626.38;5012911;28;20103;-89
2023/03/15 01:38:53;;;;;;;6.75;1.55;;;;;;;-148.88;100.00;76652.78;5013040;28;20112;-89
2023/03/15 01:41:19;;;;;;;9.77;2.00;;;;;;;-148.88;100.00;76646.69;5012347;28;20488;-88
2023/03/15 01:43:48;;;;;;;9.00;1.42;;;;;;;-148.88;100.00;76677.16;5011974;28;20030;-88
2023/03/15 01:46:22;;;;;;;6.75;1.48;;;;;;;-148.88;100.00;76671.06;5013484;28;20108;-89
2023/03/15 01:49:04;;;;;;;5.70;1.52;;;;;;;-148.88;100.00;76683.25;5011674;28;20026;-87
2023/03/15 01:51:55;;;;;;;5.25;1.60;;;;;;;-148.88;100.00;76667.00;5011584;28;20476;-88
2023/03/15 01:54:48;;;;;;;6.43;1.60;;;;;;;-148.88;100.00;76646.69;5012838;28;20033;-88
2023/03/15 01:58:33;;;;;;;8.35;1.73;;;;;;;-148.88;100.00;76679.19;5058337;23;20053;-88
2023/03/15 02:15:33;;;;;;;;;;;;;;;;;;;;;
2023/03/15 02:22:34;;;;;;;7.25;2.05;;;;;;;-148.88;100.00;76687.31;4826119;29;20041;-87
2023/03/15 02:28:11;;;;;;;6.32;2.28;;;;;;;-148.88;100.00;76717.78;5026710;23;20055;-78
2023/03/15 02:30:37;;;;;;;7.40;3.20;;;;;;;-148.88;100.00;76744.19;5040191;28;20026;-79
2023/03/15 02:33:08;;;;;;;5.68;2.53;;;;;;;-148.88;100.00;76709.66;5023020;28;20387;-79
2023/03/15 02:35:34;;;;;;;9.23;2.35;;;;;;;-148.88;100.00;76715.75;5039585;28;20025;-79
2023/03/15 02:38:01;;;;;;;10.65;3.00;;;;;;;-148.88;100.00;76719.81;5039078;28;20496;-80
2023/03/15 02:40:29;;;;;;;7.10;2.42;;;;;;;-148.88;100.00;76713.72;5038874;28;20484;-80
2023/03/15 02:43:02;;;;;;;7.63;2.75;;;;;;;-148.88;100.00;76677.16;5039302;28;20079;-79
2023/03/15 02:45:30;;;;;;;6.95;2.22;;;;;;;-148.88;100.00;76644.66;5038576;28;20432;-79
2023/03/15 02:47:56;;;;;;;5.72;2.28;;;;;;;-148.88;100.00;76656.84;5020890;28;20098;-79
2023/03/15 02:50:22;;;;;;;8.80;2.65;;;;;;;-148.88;100.00;76744.19;5038385;28;20056;-80
2023/03/15 02:52:47;;;;;;;6.68;2.20;;;;;;;-148.88;100.00;76742.16;5038390;28;20033;-77
2023/03/15 02:55:12;;;;;;;7.03;2.70;;;;;;;-148.88;100.00;76748.25;5037709;28;20029;-80
2023/03/15 02:57:37;;;;;;;6.20;2.70;;;;;;;-148.88;100.00;76748.25;5019332;28;20021;-78
2023/03/15 03:00:12;;;;;;;8.65;2.80;;;;;;;-148.88;100.00;76766.56;5037617;28;20014;-79
2023/03/15 03:02:38;;;;;;;9.38;3.15;;;;;;;-148.88;100.00;76780.78;5020056;28;20022;-80
2023/03/15 03:05:03;;;;;;;6.28;2.53;;;;;;;-148.88;100.00;76762.50;5019822;28;20435;-80
2023/03/15 03:07:29;;;;;;;6.47;2.63;;;;;;;-148.88;100.00;76772.66;5038226;28;20028;-79
2023/03/15 03:09:55;;;;;;;7.55;3.55;;;;;;;-148.88;100.00;76762.50;5038143;28;20033;-80
2023/03/15 03:12:20;;;;;;;6.30;2.92;;;;;;;-148.88;100.00;76760.44;5039255;28;20038;-79
2023/03/15 03:14:45;;;;;;;5.85;2.72;;;;;;;-148.88;100.00;76734.03;5022890;28;20059;-80
2023/03/15 03:17:11;;;;;;;5.72;2.47;;;;;;;-148.88;100.00;76748.25;5040944;28;20029;-79
2023/03/15 03:19:36;;;;;;;5.25;2.78;;;;;;;-148.88;100.00;76734.03;5023373;28;20041;-79
2023/03/15 03:22:01;;;;;;;6.15;2.55;;;;;;;-148.88;100.00;76729.97;5038741;28;20108;-80
2023/03/15 03:24:26;;;;;;;6.72;2.35;;;;;;;-148.88;100.00;76752.31;5038700;28;20083;-79
2023/03/15 03:26:56;;;;;;;4.70;2.00;;;;;;;-148.88;100.00;76740.13;5038598;28;20063;-80
2023/03/15 03:29:22;;;;;;;6.00;2.85;;;;;;;-148.88;100.00;76752.31;5038155;28;20033;-80
2023/03/15 03:31:47;;;;;;;5.63;2.45;;;;;;;-148.88;100.00;76748.25;5038425;28;20029;-78
2023/03/15 03:34:14;;;;;;;7.47;2.92;;;;;;;-148.88;100.00;76756.41;5038351;28;20057;-79
2023/03/15 03:36:40;;;;;;;5.05;2.50;;;;;;;-148.88;100.00;76768.59;5019075;28;20033;-78
2023/03/15 03:39:05;;;;;;;7.05;2.95;;;;;;;-148.88;100.00;76758.41;5037747;28;20032;-79
2023/03/15 03:41:30;;;;;;;5.60;2.60;;;;;;;-148.88;100.00;76774.69;5037874;28;20040;-80
2023/03/15 03:43:56;;;;;;;5.78;2.60;;;;;;;-148.88;100.00;76776.72;5019623;28;20037;-78
2023/03/15 03:46:21;;;;;;;8.15;2.97;;;;;;;-148.88;100.00;76770.63;5020096;28;20048;-79
2023/03/15 03:48:46;;;;;;;6.03;2.60;;;;;;;-148.88;100.00;76768.59;5037729;28;20403;-79
2023/03/15 03:51:11;;;;;;;7.55;2.78;;;;;;;-148.88;100.00;76780.78;5037830;28;20075;-78
2023/03/15 03:53:37;;;;;;;5.53;2.22;;;;;;;-148.88;100.00;76772.66;5019963;28;20417;-79
2023/03/15 03:56:06;;;;;;;5.03;2.10;;;;;;;-148.88;100.00;76746.22;5038631;28;20021;-79
2023/03/15 03:58:31;;;;;;;7.65;2.63;;;;;;;-148.88;100.00;76788.91;5037562;28;20495;-80
2023/03/15 04:00:57;;;;;;;5.30;2.53;;;;;;;-148.88;100.00;76723.88;5037220;28;20104;-79
2023/03/15 04:03:25;;;;;;;7.07;2.75;;;;;;;-148.88;100.00;76748.25;5017449;28;20029;-79
2023/03/15 04:05:51;;;;;;;5.78;2.72;;;;;;;-148.88;100.00;76784.84;5020089;28;20025;-79
2023/03/15 04:08:17;;;;;;;7.68;2.67;;;;;;;-148.88;100.00;76813.28;5037596;28;20030;-80
2023/03/15 04:10:42;;;;;;;6.00;2.72;;;;;;;-148.88;100.00;76809.22;5037198;28;20025;-79
2023/03/15 04:13:07;;;;;;;6.88;3.30;;;;;;;-148.88;100.00;76813.28;5036481;28;20108;-78
2023/03/15 04:15:32;;;;;;;11.20;4.25;;;;;;;-148.88;100.00;76797.03;5019474;28;20396;-80
2023/03/15 04:17:58;;;;;;;9.52;3.30;;;;;;;-148.88;100.00;76819.38;5037586;28;20085;-80
2023/03/15 04:20:26;;;;;;;6.80;3.13;;;;;;;-148.88;100.00;76778.75;5019502;28;20071;-80
2023/03/15 04:22:53;;;;;;;5.72;2.97;;;;;;;-148.88;100.00;76778.75;5019837;28;20116;-80
2023/03/15 04:25:19;;;;;;;8.90;3.40;;;;;;;-148.88;100.00;76784.84;5038125;28;20025;-80
2023/03/15 04:27:45;;;;;;;8.90;3.42;;;;;;;-148.88;100.00;76784.84;5019738;28;20080;-80
2023/03/15 04:30:11;;;;;;;7.28;3.10;;;;;;;-148.88;100.00;76790.94;5020140;28;20025;-79
2023/03/15 04:32:37;;;;;;;8.32;2.78;;;;;;;-148.88;100.00;76801.09;5037534;28;20017;-79
2023/03/15 04:35:03;;;;;;;8.27;3.17;;;;;;;-148.88;100.00;76784.84;5037441;28;20029;-80
2023/03/15 04:37:30;;;;;;;5.68;2.65;;;;;;;-148.88;100.00;76772.66;5037189;28;20025;-81
2023/03/15 04:39:56;;;;;;;7.18;2.65;;;;;;;-148.88;100.00;76770.63;5036228;28;20018;-81
2023/03/15 04:42:21;;;;;;;6.65;3.13;;;;;;;-148.88;100.00;76764.53;5019563;28;20040;-82
2023/03/15 04:44:47;;;;;;;8.50;2.95;;;;;;;-148.88;100.00;76766.56;5037288;28;20100;-81
2023/03/15 04:47:12;;;;;;;5.38;2.47;;;;;;;-148.88;100.00;76754.38;5035730;28;20033;-80
2023/03/15 04:49:37;;;;;;;9.30;3.45;;;;;;;-148.88;100.00;76764.53;5034168;28;20032;-79
2023/03/15 04:52:03;;;;;;;8.20;2.83;;;;;;;-148.88;100.00;76754.38;5016763;28;20025;-79
2023/03/15 04:54:28;;;;;;;6.10;2.90;;;;;;;-148.88;100.00;76748.25;5035359;28;20392;-81
2023/03/15 04:56:54;;;;;;;8.43;3.00;;;;;;;-148.88;100.00;76744.19;5018359;28;20033;-80
2023/03/15 04:59:19;;;;;;;11.57;3.30;;;;;;;-148.88;100.00;76754.38;5035926;28;20036;-80
2023/03/15 05:01:44;;;;;;;7.07;3.10;;;;;;;-148.88;100.00;76766.56;5018098;28;20022;-80
2023/03/15 05:04:09;;;;;;;8.68;3.25;;;;;;;-148.88;100.00;76770.63;5035647;28;20033;-80
2023/03/15 05:06:35;;;;;;;8.13;3.00;;;;;;;-148.88;100.00;76782.81;5035934;28;20036;-80
2023/03/15 05:09:00;;;;;;;9.32;2.58;;;;;;;-148.88;100.00;76764.53;5017733;28;20024;-80
2023/03/15 05:11:25;;;;;;;8.68;3.53;;;;;;;-148.88;100.00;76756.41;5035654;28;20025;-82
2023/03/15 05:13:51;;;;;;;6.88;2.97;;;;;;;-148.88;100.00;76752.31;5017676;28;20021;-81
2023/03/15 05:16:16;;;;;;;8.45;3.30;;;;;;;-148.88;100.00;76778.75;5017636;28;20447;-82
2023/03/15 05:18:44;;;;;;;11.23;3.30;;;;;;;-148.88;100.00;76821.41;5035835;28;20036;-81
2023/03/15 05:21:09;;;;;;;14.02;3.53;;;;;;;-148.88;100.00;76821.41;5018158;28;20365;-81
2023/03/15 05:23:34;;;;;;;5.88;3.20;;;;;;;-148.88;100.00;76817.34;5018113;28;20120;-80
2023/03/15 05:26:00;;;;;;;9.02;3.78;;;;;;;-148.88;100.00;76841.72;5034589;28;20061;-80
2023/03/15 05:28:25;;;;;;;11.82;3.67;;;;;;;-148.88;100.00;76805.16;5016739;28;20033;-80
2023/03/15 05:30:52;;;;;;;12.38;4.07;;;;;;;-148.88;100.00;76841.72;5017227;28;20117;-81
2023/03/15 05:33:18;;;;;;;8.30;3.58;;;;;;;-148.88;100.00;76833.59;5021709;28;20049;-82
2023/03/15 05:35:44;;;;;;;8.27;3.67;;;;;;;-148.88;100.00;76845.78;5023361;28;20017;-85
2023/03/15 05:38:13;;;;;;;8.18;3.08;;;;;;;-148.88;100.00;76835.63;5022727;28;20021;-83
2023/03/15 05:40:40;;;;;;;11.43;3.83;;;;;;;-148.88;100.00;76833.59;5022664;28;20024;-83
2023/03/15 05:43:06;;;;;;;9.60;3.53;;;;;;;-148.88;100.00;76847.81;5021813;28;20052;-80
2023/03/15 05:45:31;;;;;;;7.10;3.42;;;;;;;-148.88;100.00;76862.03;5021595;28;20072;-81
2023/03/15 05:47:56;;;;;;;9.18;4.10;;;;;;;-148.88;100.00;76857.97;5021732;28;20017;-80
2023/03/15 05:50:22;;;;;;;8.65;3.83;;;;;;;-148.88;100.00;76876.25;5021258;28;20064;-80
2023/03/15 05:52:50;;;;;;;7.95;3.22;;;;;;;-148.88;100.00;76849.84;5021880;28;20025;-80
2023/03/15 05:55:16;;;;;;;12.02;3.38;;;;;;;-148.88;100.00;76841.72;5021074;28;20059;-81
2023/03/15 05:57:41;;;;;;;16.05;4.20;;;;;;;-148.88;100.00;76847.81;5021294;28;20021;-80
2023/03/15 06:00:08;;;;;;;8.20;3.72;;;;;;;-148.88;100.00;76855.94;5040868;28;20032;-81
2023/03/15 06:02:33;;;;;;;11.43;4.13;;;;;;;-148.88;100.00;76870.16;5037681;28;20037;-80
2023/03/15 06:04:58;;;;;;;7.47;3.70;;;;;;;-148.88;100.00;76866.09;5038483;28;20025;-79
2023/03/15 06:07:23;;;;;;;11.05;4.03;;;;;;;-148.88;100.00;76851.88;5038809;28;20021;-79
2023/03/15 06:09:50;;;;;;;7.28;3.38;;;;;;;-148.88;100.00;76874.22;5040829;28;20018;-78
2023/03/15 06:12:16;;;;;;;11.38;4.18;;;;;;;-148.88;100.00;76874.22;5023143;28;20081;-79
2023/03/15 06:14:41;;;;;;;10.32;4.18;;;;;;;-148.88;100.00;76862.03;5027040;28;20021;-79
2023/03/15 06:17:06;;;;;;;10.88;3.75;;;;;;;-148.88;100.00;76860.00;5026396;28;20081;-79
2023/03/15 06:19:32;;;;;;;9.10;4.25;;;;;;;-148.88;100.00;76874.22;5022179;28;20526;-81
2023/03/15 06:21:59;;;;;;;31.02;4.32;;;;;;;-148.88;100.00;76851.88;5039336;28;20499;-79
2023/03/15 06:24:24;;;;;;;8.00;3.28;;;;;;;-148.88;100.00;76862.03;5040028;28;20369;-79
2023/03/15 06:26:50;;;;;;;18.23;4.20;;;;;;;-148.88;100.00;76870.16;5022133;28;20040;-79
2023/03/15 06:29:16;;;;;;;12.38;3.80;;;;;;;-148.88;100.00;76898.63;5040485;28;20030;-78
2023/03/15 06:31:42;;;;;;;8.20;3.90;;;;;;;-148.88;100.00;76855.94;5022163;28;20487;-79
2023/03/15 06:34:07;;;;;;;7.97;3.60;;;;;;;-148.88;100.00;76831.56;5041151;28;20021;-78
2023/03/15 06:36:33;;;;;;;12.27;4.70;;;;;;;-148.88;100.00;76876.25;5052445;28;20029;-77
2023/03/15 06:38:58;;;;;;;12.52;3.97;;;;;;;-148.88;100.00;76839.69;5037545;28;20017;-77
2023/03/15 06:41:24;;;;;;;9.15;4.32;;;;;;;-148.88;100.00;76841.72;5054991;28;20031;-78
2023/03/15 06:43:49;;;;;;;12.80;3.95;;;;;;;-148.88;100.00;76853.91;5023433;28;20033;-78
2023/03/15 06:46:14;;;;;;;9.85;3.13;;;;;;;-148.88;100.00;76857.97;5041005;28;20033;-79
2023/03/15 06:48:40;;;;;;;7.97;3.40;;;;;;;-148.88;100.00;76845.78;5022322;28;20029;-79
2023/03/15 06:51:05;;;;;;;11.05;4.50;;;;;;;-148.88;100.00;76833.59;5040233;28;20014;-79
2023/03/15 06:53:31;;;;;;;11.27;3.30;;;;;;;-148.88;100.00;76853.91;5039848;28;20021;-78
2023/03/15 06:55:56;;;;;;;7.43;2.95;;;;;;;-148.88;100.00;76845.78;5039034;28;20128;-78
2023/03/15 06:58:21;;;;;;;8.02;3.33;;;;;;;-148.88;100.00;76868.13;5020400;28;20021;-77
2023/03/15 07:00:48;;;;;;;13.70;4.90;;;;;;;-148.88;100.00;76857.97;5021383;28;20029;-78
2023/03/15 07:03:13;;;;;;;16.50;4.25;;;;;;;-148.88;100.00;76853.91;5020520;28;20044;-78
2023/03/15 07:05:38;;;;;;;7.75;3.47;;;;;;;-148.88;100.00;76857.97;5038226;28;20037;-79
2023/03/15 07:08:04;;;;;;;13.30;3.90;;;;;;;-148.88;100.00;76829.53;5038457;28;20049;-78
2023/03/15 07:10:29;;;;;;;14.10;4.53;;;;;;;-148.88;100.00;76843.75;5038069;28;20029;-79
2023/03/15 07:12:54;;;;;;;9.00;3.67;;;;;;;-148.88;100.00;76845.78;5037982;28;20025;-78
2023/03/15 07:15:20;;;;;;;8.50;3.53;;;;;;;-148.88;100.00;76849.84;5018690;28;20167;-78
2023/03/15 07:17:45;;;;;;;13.13;3.67;;;;;;;-148.88;100.00;76849.84;5037357;28;20036;-77
2023/03/15 07:20:11;;;;;;;10.25;3.22;;;;;;;-148.88;100.00;76841.72;5037292;28;20116;-78
2023/03/15 07:22:36;;;;;;;15.48;4.18;;;;;;;-148.88;100.00;76831.56;5037098;28;20064;-78
2023/03/15 07:25:02;;;;;;;8.75;3.22;;;;;;;-148.88;100.00;76860.00;5038922;28;20018;-79
2023/03/15 07:27:28;;;;;;;9.70;3.72;;;;;;;-148.88;100.00;76872.19;5019740;28;20022;-79
2023/03/15 07:29:54;;;;;;;8.77;3.45;;;;;;;-148.88;100.00;76839.69;5037810;28;20056;-78
2023/03/15 07:32:19;;;;;;;12.40;4.25;;;;;;;-148.88;100.00;76837.66;5038118;28;20104;-79
2023/03/15 07:34:44;;;;;;;8.20;3.78;;;;;;;-148.88;100.00;76837.66;5019650;28;20059;-79
2023/03/15 07:37:10;;;;;;;10.95;3.20;;;;;;;-148.88;100.00;76815.31;5019674;28;20067;-79
2023/03/15 07:39:35;;;;;;;9.73;3.80;;;;;;;-148.88;100.00;76813.28;5019580;28;20025;-79
2023/03/15 07:42:00;;;;;;;15.02;4.53;;;;;;;-148.88;99.42;76829.53;5037421;28;20037;-79
2023/03/15 07:44:26;;;;;;;10.20;3.72;;;;;;;-148.88;100.00;76886.41;5019472;28;20484;-79
2023/03/15 07:46:51;;;;;;;10.60;4.05;;;;;;;-148.88;100.00;76876.25;5037577;28;20097;-78
2023/03/15 07:49:17;;;;;;;11.65;4.00;;;;;;;-148.88;100.00;76908.78;5037426;28;20116;-77
2023/03/15 07:51:42;;;;;;;14.20;4.25;;;;;;;-148.88;100.00;76894.56;5017822;28;20492;-78
2023/03/15 07:54:08;;;;;;;15.73;4.07;;;;;;;-148.88;100.00;76884.38;5036208;28;20056;-79
2023/03/15 07:56:33;;;;;;;11.25;4.32;;;;;;;-148.88;100.00;76878.28;5036924;28;20033;-78
2023/03/15 07:58:59;;;;;;;9.90;4.53;;;;;;;-148.88;100.00;76890.50;5036966;28;20029;-79
2023/03/15 08:01:24;;;;;;;7.43;3.72;;;;;;;-148.88;100.00;76896.59;5037196;28;20381;-80
2023/03/15 08:03:50;;;;;;;11.05;3.95;;;;;;;-148.88;100.00;76890.50;5018756;28;20026;-79
2023/03/15 08:06:15;;;;;;;9.45;3.80;;;;;;;-148.88;100.00;76874.22;5018928;28;20534;-79
2023/03/15 08:08:40;;;;;;;15.35;4.30;;;;;;;-148.88;99.18;76870.16;5037255;28;20025;-79
2023/03/15 08:11:05;;;;;;;13.23;3.08;;;;;;;-148.88;98.20;76874.22;5036469;28;20025;-78
2023/03/15 08:13:31;;;;;;;11.38;3.78;;;;;;;-148.88;99.33;76884.38;5037266;28;20080;-78
2023/03/15 08:15:56;;;;;;;17.25;4.47;;;;;;;-148.88;98.70;76845.78;5019119;28;20028;-79
2023/03/15 08:18:21;;;;;;;11.15;3.63;;;;;;;-148.88;98.10;76843.75;5037125;28;20372;-79
2023/03/15 08:20:47;;;;;;;5.93;3.20;;;;;;;-148.88;100.00;76841.72;5036867;28;20096;-79
2023/03/15 08:23:15;;;;;;;16.35;3.55;;;;;;;-148.88;99.34;76853.91;5037481;28;20116;-79
2023/03/15 08:25:41;;;;;;;13.38;3.47;;;;;;;-148.88;99.25;76882.34;5037015;28;20376;-77
2023/03/15 08:28:06;;;;;;;10.98;3.50;;;;;;;-148.88;99.42;76898.63;5034832;28;20403;-78
2023/03/15 08:30:32;;;;;;;11.60;2.92;;;;;;;-148.88;99.43;76872.19;5017818;28;20104;-78
2023/03/15 08:32:57;;;;;;;7.93;2.97;;;;;;;-148.88;97.02;76866.09;5018207;28;20037;-78
2023/03/15 08:35:22;;;;;;;11.52;2.80;;;;;;;-148.88;97.10;76860.00;5036435;28;20021;-80
2023/03/15 08:37:48;;;;;;;10.02;3.20;;;;;;;-148.88;95.50;76833.59;5018999;28;20022;-80
2023/03/15 08:40:17;;;;;;;8.95;2.70;;;;;;;-148.88;95.12;76825.47;5018739;28;20028;-80
2023/03/15 08:42:43;;;;;;;10.32;3.78;;;;;;;-148.88;94.72;76817.34;5019162;28;20397;-79
2023/03/15 08:45:09;;;;;;;12.93;4.00;;;;;;;-148.88;92.55;76786.88;5036750;28;20048;-79
2023/03/15 08:47:34;;;;;;;9.93;3.90;;;;;;;-148.88;91.83;76805.16;5037032;28;20033;-79
2023/03/15 08:50:06;;;;;;;9.75;4.32;;;;;;;-148.88;94.60;76857.97;5036492;28;20021;-80
2023/03/15 08:52:31;;;;;;;11.35;3.72;;;;;;;-148.88;93.73;76866.09;5036931;28;20083;-78
2023/03/15 08:54:56;;;;;;;7.57;3.30;;;;;;;-148.88;93.87;76862.03;5019376;28;20022;-79
2023/03/15 08:57:25;;;;;;;17.02;3.83;;;;;;;-148.88;94.49;76870.16;5037012;28;20029;-77
2023/03/15 08:59:51;;;;;;;10.07;3.70;;;;;;;-148.88;93.58;76841.72;5019509;28;20029;-79
2023/03/15 09:02:17;;;;;;;8.13;3.17;;;;;;;-148.88;91.45;76774.69;5019816;28;20033;-77
2023/03/15 09:04:44;;;;;;;12.90;4.22;;;;;;;-148.88;89.15;76762.50;5016735;28;20025;-77
2023/03/15 09:07:11;;;;;;;11.38;3.90;;;;;;;-148.88;89.52;76748.25;5036578;28;20053;-79
2023/03/15 09:09:36;;;;;;;9.35;3.28;;;;;;;-148.88;86.52;76764.53;5022552;28;20053;-80
2023/03/15 09:12:02;;;;;;;9.35;3.60;;;;;;;-148.88;86.24;76711.69;5040791;28;20506;-79
2023/03/15 09:14:27;;;;;;;9.65;3.95;;;;;;;-148.88;85.48;76679.19;5040390;28;20029;-80
2023/03/15 09:16:53;;;;;;;10.80;3.50;;;;;;;-148.88;84.20;76654.81;5040552;28;20049;-80
2023/03/15 09:19:19;;;;;;;10.35;3.30;;;;;;;-148.88;82.77;76662.94;5041140;28;20104;-80
2023/03/15 09:21:45;;;;;;;13.57;4.20;;;;;;;-148.88;82.76;76642.63;5022467;28;20057;-80
2023/03/15 09:24:11;;;;;;;10.50;2.97;;;;;;;-148.88;79.05;76707.63;5041516;28;20105;-79
2023/03/15 09:26:37;;;;;;;6.60;2.95;;;;;;;-148.88;82.57;76711.69;5040799;28;20468;-80
2023/03/15 09:29:03;;;;;;;7.20;2.45;;;;;;;-148.88;79.73;76642.63;5022996;28;20488;-80
2023/03/15 09:31:28;;;;;;;17.88;3.63;;;;;;;-148.88;80.32;76667.00;5022715;28;20054;-80
2023/03/15 09:33:53;;;;;;;5.82;2.72;;;;;;;-148.88;80.13;76691.38;5040598;28;20029;-80
2023/03/15 09:36:18;;;;;;;8.48;2.38;;;;;;;-148.88;80.50;76691.38;5040389;28;20049;-80
2023/03/15 09:38:46;;;;;;;8.55;3.20;;;;;;;-148.88;81.33;76693.41;5022611;28;20043;-78
2023/03/15 09:41:43;;;;;;;17.23;3.15;;;;;;;-148.88;80.46;76648.72;5038197;28;20028;-78
2023/03/15 09:44:35;;;;;;;6.78;2.28;;;;;;;-148.88;75.58;76638.56;5022469;28;20032;-80
2023/03/15 09:47:32;;;;;;;11.95;2.60;;;;;;;-148.88;74.68;76675.13;5040160;28;20411;-80
2023/03/15 09:50:12;;;;;;;4.05;1.73;;;;;;;-148.88;74.27;76699.50;5041023;28;20431;-80
2023/03/15 09:52:43;;;;;;;6.60;1.85;;;;;;;-148.88;72.87;76634.50;5041829;28;20028;-79
2023/03/15 09:55:24;;;;;;;11.70;2.30;;;;;;;-148.88;72.44;76557.28;5030185;28;20043;-79
2023/03/15 09:57:54;;;;;;;7.65;2.50;;;;;;;-148.88;73.22;76573.53;5045844;28;20079;-80
2023/03/15 10:00:42;;;;;;;6.78;1.92;;;;;;;-148.88;70.09;76549.16;5023627;28;20029;-80
2023/03/15 10:03:21;;;;;;;8.07;2.47;;;;;;;-148.88;70.16;76504.47;5040562;28;20021;-80
2023/03/15 10:05:53;;;;;;;7.45;3.20;;;;;;;-148.88;68.97;76480.09;5039560;28;20388;-80
2023/03/15 10:08:19;;;;;;;8.18;2.67;;;;;;;-148.88;70.29;76551.19;5039891;28;20548;-80
2023/03/15 10:11:08;;;;;;;7.65;2.55;;;;;;;-148.88;73.69;76626.38;5040375;28;20048;-80
2023/03/15 10:13:48;;;;;;;4.57;2.25;;;;;;;-148.88;75.71;76677.16;5024520;28;20412;-80
2023/03/15 10:16:25;;;;;;;6.00;2.30;;;;;;;-148.88;73.29;76610.13;5021195;28;20089;-80
2023/03/15 10:19:16;;;;;;;6.28;1.50;;;;;;;-148.88;70.66;76591.81;5038601;28;20029;-79
2023/03/15 10:21:53;;;;;;;6.78;1.70;;;;;;;-148.88;70.56;76569.47;5040227;28;20087;-80
2023/03/15 10:25:04;;;;;;;5.38;2.17;;;;;;;-148.88;65.45;76532.91;5039474;28;20498;-80
2023/03/15 10:27:39;;;;;;;6.70;2.03;;;;;;;-148.88;63.22;76476.03;5009158;28;20084;-80
2023/03/15 10:30:23;;;;;;;9.93;2.17;;;;;;;-148.88;62.27;76437.44;5039952;28;20052;-80
2023/03/15 10:32:53;;;;;;;;;;;;;;;-148.88;59.75;76415.06;5022646;28;20361;-79
2023/03/15 10:35:20;;;;;;;9.23;1.27;;;;;;;-148.88;60.02;76408.97;5038865;28;19999;-79
2023/03/15 10:37:45;;;;;;;3.83;1.30;;;;;;;-148.88;58.42;76398.81;5020291;28;20037;-79
2023/03/15 10:40:15;;;;;;;4.07;1.15;;;;;;;-148.88;56.75;76439.47;5020802;28;20047;-79
2023/03/15 10:42:45;;;;;;;5.63;1.23;;;;;;;-148.88;54.04;76427.28;5038574;28;20021;-79
2023/03/15 10:45:19;;;;;;;5.75;1.80;;;;;;;-148.88;59.13;76408.97;5037899;28;20400;-79
2023/03/15 10:47:46;;;;;;;5.45;1.55;;;;;;;-148.88;59.96;76463.84;5019969;28;20377;-79
2023/03/15 10:50:23;;;;;;;6.75;1.73;;;;;;;-148.88;58.28;76427.28;5020833;28;20120;-78
2023/03/15 10:52:49;;;;;;;6.55;1.40;;;;;;;-148.88;56.01;76390.69;5018320;28;20473;-79
2023/03/15 10:55:20;;;;;;;7.57;1.73;;;;;;;-148.88;55.79;76348.03;5018176;28;20037;-78
2023/03/15 10:57:55;;;;;;;8.20;1.65;;;;;;;-148.88;54.39;76406.94;5035786;28;20033;-78
2023/03/15 11:00:30;;;;;;;2.65;1.10;;;;;;;-148.88;53.64;76463.84;5035801;28;20250;-79
2023/03/15 11:03:14;;;;;;;4.57;1.38;;;;;;;-148.88;54.17;76435.41;5019392;28;20021;-80
2023/03/15 11:05:46;;;;;;;6.53;1.38;;;;;;;-148.88;53.99;76516.66;5019398;28;20021;-78
2023/03/15 11:08:20;;;;;;;3.40;0.90;;;;;;;-148.88;55.00;76453.69;5038356;28;20453;-79
2023/03/15 11:10:57;;;;;;;6.13;1.23;;;;;;;-148.88;51.49;76496.34;5038262;28;20036;-79
2023/03/15 11:13:28;;;;;;;4.88;1.00;;;;;;;-148.88;51.97;76502.44;5037502;28;20029;-79
2023/03/15 11:16:02;;;;;;;3.97;1.42;;;;;;;-148.88;53.85;76471.97;5037944;28;20032;-79
2023/03/15 11:18:53;;;;;;;11.93;1.27;;;;;;;-148.88;51.32;76561.34;5037988;28;20049;-79
2023/03/15 11:21:24;;;;;;;6.45;0.60;;;;;;;-148.88;53.09;76622.31;5037823;28;20100;-79
2023/03/15 11:23:50;;;;;;;4.60;0.70;;;;;;;-148.88;52.42;76593.84;5020845;28;20044;-79
2023/03/15 11:26:24;;;;;;;1.50;0.70;;;;;;;-148.88;54.70;76648.72;5019875;28;20108;-79
2023/03/15 11:28:54;;;;;;;3.75;0.90;;;;;;;-148.88;52.39;76646.69;5018404;28;20037;-77
2023/03/15 11:31:20;;;;;;;4.43;0.75;;;;;;;-148.88;51.57;76636.53;5018049;28;20052;-77
2023/03/15 11:33:59;;;;;;;6.50;0.75;;;;;;;-148.88;50.51;76559.31;5035798;28;20049;-78
2023/03/15 11:36:29;;;;;;;2.65;0.80;;;;;;;-148.88;50.62;76557.28;5035895;28;20113;-78
2023/03/15 11:38:55;;;;;;;3.35;0.73;;;;;;;-148.88;48.86;76616.22;5036936;28;20095;-78